createdAt,value
2024-02-26T00:00:42.180Z,78.60
2024-02-26T00:08:50.610Z,78.40
2024-02-26T00:16:56.472Z,78.50
2024-02-26T00:25:04.932Z,78.40
2024-02-26T00:33:11.591Z,78.40
2024-02-26T00:41:20.102Z,78.00
2024-02-26T00:49:25.944Z,78.00
2024-02-26T00:57:34.151Z,78.00
2024-02-26T01:05:40.727Z,77.90
2024-02-26T01:13:49.186Z,78.10
2024-02-26T01:21:55.001Z,79.20
2024-02-26T01:30:04.552Z,77.90
2024-02-26T01:38:10.231Z,76.90
2024-02-26T01:46:20.481Z,77.90
2024-02-26T01:54:26.620Z,77.80
2024-02-26T02:02:35.450Z,77.00
2024-02-26T02:10:42.164Z,77.60
2024-02-26T02:18:50.720Z,81.20
2024-02-26T02:26:59.643Z,83.60
2024-02-26T02:35:05.471Z,84.70
2024-02-26T02:43:13.948Z,83.10
2024-02-26T02:51:19.654Z,82.90
2024-02-26T02:59:28.018Z,82.20
2024-02-26T03:07:33.702Z,82.60
2024-02-26T03:15:42.384Z,84.70
2024-02-26T03:23:48.200Z,85.60
2024-02-26T03:31:56.578Z,86.30
2024-02-26T03:40:02.550Z,86.80
2024-02-26T03:48:11.841Z,87.60
2024-02-26T03:56:17.725Z,88.20
2024-02-26T04:04:26.163Z,89.00
2024-02-26T04:12:31.965Z,88.80
2024-02-26T04:20:40.560Z,88.50
2024-02-26T04:28:46.381Z,89.60
2024-02-26T04:36:54.699Z,89.90
2024-02-26T04:45:00.633Z,90.30
2024-02-26T04:53:09.598Z,91.10
2024-02-26T05:01:15.347Z,91.30
2024-02-26T05:09:24.082Z,90.90
2024-02-26T05:17:29.927Z,90.80
2024-02-26T05:25:38.300Z,90.30
2024-02-26T05:33:44.414Z,90.00
2024-02-26T05:41:53.277Z,88.10
2024-02-26T05:50:00.883Z,87.60
2024-02-26T05:58:09.358Z,87.80
2024-02-26T06:06:16.904Z,87.40
2024-02-26T06:14:26.082Z,89.90
2024-02-26T06:22:31.872Z,89.80
2024-02-26T06:30:40.484Z,89.40
2024-02-26T06:38:46.276Z,87.20
2024-02-26T06:46:54.686Z,87.80
2024-02-26T06:55:00.478Z,85.90
2024-02-26T07:03:09.466Z,85.40
2024-02-26T07:11:15.581Z,85.00
2024-02-26T07:19:23.982Z,84.60
2024-02-26T07:27:29.688Z,83.90
2024-02-26T07:35:39.947Z,83.50
2024-02-26T07:43:45.614Z,82.90
2024-02-26T07:51:53.997Z,82.70
2024-02-26T07:59:59.681Z,83.10
2024-02-26T08:08:08.626Z,83.60
2024-02-26T08:16:14.385Z,84.60
2024-02-26T08:24:23.015Z,82.80
2024-02-26T08:32:29.035Z,82.50
2024-02-26T08:40:37.266Z,79.80
2024-02-26T08:48:43.961Z,78.50
2024-02-26T08:56:52.360Z,78.10
2024-02-26T09:04:58.656Z,75.10
2024-02-26T09:13:10.588Z,74.20
2024-02-26T09:21:17.544Z,73.20
2024-02-26T09:29:27.836Z,73.90
2024-02-26T09:37:34.034Z,74.30
2024-02-26T09:45:42.610Z,73.60
2024-02-26T09:53:50.907Z,71.80
2024-02-26T10:02:02.575Z,71.10
2024-02-26T10:10:09.456Z,70.80
2024-02-26T10:18:18.051Z,69.80
2024-02-26T10:26:24.185Z,73.10
2024-02-26T10:34:33.124Z,73.90
2024-02-26T10:42:39.086Z,73.00
2024-02-26T10:50:48.322Z,72.60
2024-02-26T10:58:54.356Z,73.40
2024-02-26T11:07:03.766Z,72.60
2024-02-26T11:15:10.834Z,72.80
2024-02-26T11:23:19.546Z,73.00
2024-02-26T11:31:29.580Z,72.20
2024-02-26T11:39:38.775Z,71.80
2024-02-26T11:47:44.614Z,70.80
2024-02-26T11:55:53.381Z,70.10
2024-02-26T12:04:00.689Z,69.30
2024-02-26T12:12:11.491Z,70.30
2024-02-26T12:20:18.709Z,69.80
2024-02-26T12:28:27.045Z,69.40
2024-02-26T12:36:34.076Z,68.80
2024-02-26T12:44:45.881Z,70.00
2024-02-26T12:52:57.504Z,70.80
2024-02-26T13:01:08.553Z,69.40
2024-02-26T13:09:19.656Z,69.30
2024-02-26T13:17:36.207Z,69.00
2024-02-26T13:25:45.848Z,68.10
2024-02-26T13:33:56.794Z,68.90
2024-02-26T13:42:02.611Z,67.90
2024-02-26T13:50:11.788Z,68.00
2024-02-26T13:58:21.793Z,68.00
2024-02-26T14:06:30.324Z,68.70
2024-02-26T14:14:39.911Z,69.00
2024-02-26T14:22:48.355Z,69.00
2024-02-26T14:30:53.870Z,68.40
2024-02-26T14:39:02.282Z,68.20
2024-02-26T14:47:08.535Z,68.80
2024-02-26T14:55:17.046Z,68.00
2024-02-26T15:03:22.886Z,68.10
2024-02-26T15:11:31.305Z,68.20
2024-02-26T15:19:37.094Z,67.70
2024-02-26T15:27:45.519Z,68.40
2024-02-26T15:35:51.156Z,67.50
2024-02-26T15:44:01.635Z,67.80
2024-02-26T15:52:08.344Z,68.40
2024-02-26T16:00:18.538Z,68.40
2024-02-26T16:08:27.045Z,68.20
2024-02-26T16:16:38.084Z,68.40
2024-02-26T16:24:43.941Z,69.00
2024-02-26T16:32:52.282Z,69.00
2024-02-26T16:40:58.086Z,68.80
2024-02-26T16:49:08.833Z,69.30
2024-02-26T16:57:15.051Z,70.00
2024-02-26T17:05:23.673Z,70.30
2024-02-26T17:13:29.754Z,71.10
2024-02-26T17:21:38.910Z,71.00
2024-02-26T17:29:44.649Z,72.50
2024-02-26T17:37:53.646Z,72.10
2024-02-26T17:46:00.051Z,71.50
2024-02-26T17:54:08.363Z,71.70
2024-02-26T18:02:14.176Z,69.40
2024-02-26T18:10:24.543Z,69.70
2024-02-26T18:18:32.479Z,69.60
2024-02-26T18:26:56.634Z,70.30
2024-02-26T18:35:03.363Z,71.70
2024-02-26T18:43:11.858Z,72.60
2024-02-26T18:51:17.582Z,72.00
2024-02-26T18:59:26.349Z,71.50
2024-02-26T19:07:32.137Z,72.60
2024-02-26T19:15:42.505Z,72.70
2024-02-26T19:23:52.524Z,73.50
2024-02-26T19:32:02.149Z,72.30
2024-02-26T19:40:12.367Z,71.40
2024-02-26T19:48:21.213Z,71.80
2024-02-26T19:56:29.729Z,70.90
2024-02-26T20:04:38.100Z,71.30
2024-02-26T20:12:44.053Z,70.20
2024-02-26T20:20:52.697Z,69.30
2024-02-26T20:29:02.830Z,68.60
2024-02-26T20:37:24.248Z,67.70
2024-02-26T20:45:31.752Z,68.50
2024-02-26T20:53:40.626Z,67.30
2024-02-26T21:01:48.604Z,66.90
2024-02-26T21:09:57.092Z,68.00
2024-02-26T21:18:03.119Z,68.50
2024-02-26T21:26:11.675Z,67.30
2024-02-26T21:34:18.583Z,67.40
2024-02-26T21:42:31.521Z,67.50
2024-02-26T21:50:39.712Z,67.00
2024-02-26T21:59:08.305Z,67.80
2024-02-26T22:08:01.439Z,68.30
2024-02-26T22:16:12.961Z,67.80
2024-02-26T22:24:19.321Z,66.70
2024-02-26T22:32:27.667Z,67.30
2024-02-26T22:40:33.611Z,67.70
2024-02-26T22:48:42.095Z,68.10
2024-02-26T22:56:48.072Z,68.00
2024-02-26T23:04:56.523Z,67.90
2024-02-26T23:13:02.325Z,68.70
2024-02-26T23:21:10.865Z,70.00
2024-02-26T23:29:16.641Z,70.30
2024-02-26T23:37:24.867Z,70.10
2024-02-26T23:45:30.619Z,71.00
2024-02-26T23:53:38.937Z,71.30
